createdAt,value
2022-10-26T00:01:56.763Z,10.31
2022-10-26T00:05:12.895Z,10.28
2022-10-26T00:08:21.496Z,10.21
2022-10-26T00:11:30.851Z,10.25
2022-10-26T00:14:39.404Z,10.22
2022-10-26T00:17:48.105Z,10.19
2022-10-26T00:21:03.689Z,10.14
2022-10-26T00:24:11.852Z,10.15
2022-10-26T00:27:26.863Z,10.16
2022-10-26T00:30:28.786Z,10.04
2022-10-26T00:33:43.846Z,10.14
2022-10-26T00:36:59.068Z,10.16
2022-10-26T00:40:07.847Z,10.12
2022-10-26T00:43:40.829Z,10.10
2022-10-26T00:46:55.848Z,10.03
2022-10-26T00:50:17.838Z,10.02
2022-10-26T00:53:27.180Z,9.97
2022-10-26T00:56:42.828Z,9.96
2022-10-26T00:59:51.854Z,9.98
2022-10-26T01:03:05.631Z,9.97
2022-10-26T01:06:21.834Z,9.94
2022-10-26T01:09:30.811Z,9.88
2022-10-26T01:12:40.048Z,9.81
2022-10-26T01:16:13.830Z,9.77
2022-10-26T01:19:55.834Z,9.74
2022-10-26T01:23:32.846Z,9.73
2022-10-26T01:27:16.835Z,9.71
2022-10-26T01:30:39.993Z,9.67
2022-10-26T01:34:10.834Z,9.64
2022-10-26T01:37:41.837Z,9.64
2022-10-26T01:41:06.850Z,9.60
2022-10-26T01:44:18.666Z,9.55
2022-10-26T01:47:36.840Z,9.54
2022-10-26T01:50:42.014Z,9.49
2022-10-26T01:53:56.844Z,9.49
2022-10-26T01:57:04.693Z,9.51
2022-10-26T02:00:20.828Z,9.47
2022-10-26T02:04:13.889Z,9.46
2022-10-26T02:07:29.533Z,9.44
2022-10-26T02:10:57.838Z,9.39
2022-10-26T02:14:39.827Z,9.42
2022-10-26T02:18:03.840Z,9.37
2022-10-26T02:21:16.834Z,9.39
2022-10-26T02:24:33.844Z,9.37
2022-10-26T02:27:47.711Z,9.31
2022-10-26T02:30:59.853Z,9.34
2022-10-26T02:34:18.821Z,9.27
2022-10-26T02:37:29.838Z,9.28
2022-10-26T02:40:39.193Z,9.27
2022-10-26T02:44:13.824Z,9.24
2022-10-26T02:47:28.830Z,9.21
2022-10-26T02:50:53.795Z,9.19
2022-10-26T02:54:15.866Z,9.13
2022-10-26T02:57:29.658Z,9.04
2022-10-26T03:00:38.822Z,9.10
2022-10-26T03:03:48.238Z,9.08
2022-10-26T03:07:00.824Z,9.05
2022-10-26T03:10:22.830Z,9.01
2022-10-26T03:13:37.830Z,9.01
2022-10-26T03:16:39.619Z,8.97
2022-10-26T03:19:54.811Z,8.96
2022-10-26T03:22:56.635Z,8.96
2022-10-26T03:26:11.803Z,8.93
2022-10-26T03:29:20.372Z,8.94
2022-10-26T03:32:34.812Z,8.91
2022-10-26T03:36:02.833Z,8.90
2022-10-26T03:39:10.825Z,8.92
2022-10-26T03:42:25.847Z,8.90
2022-10-26T03:45:34.349Z,8.91
2022-10-26T03:48:42.857Z,8.91
2022-10-26T03:51:57.820Z,8.90
2022-10-26T03:55:05.835Z,8.89
2022-10-26T03:58:14.374Z,8.86
2022-10-26T04:01:28.885Z,8.83
2022-10-26T04:04:36.900Z,8.83
2022-10-26T04:07:52.896Z,8.78
2022-10-26T04:11:08.827Z,8.79
2022-10-26T04:14:10.626Z,8.78
2022-10-26T04:17:25.847Z,8.80
2022-10-26T04:20:34.697Z,8.78
2022-10-26T04:23:42.817Z,8.76
2022-10-26T04:26:57.900Z,8.73
2022-10-26T04:30:07.082Z,8.67
2022-10-26T04:33:21.861Z,8.68
2022-10-26T04:36:37.055Z,8.67
2022-10-26T04:39:51.861Z,8.69
2022-10-26T04:43:00.790Z,8.70
2022-10-26T04:46:16.889Z,8.73
2022-10-26T04:49:31.816Z,8.68
2022-10-26T04:52:34.473Z,8.67
2022-10-26T04:55:48.840Z,8.74
2022-10-26T04:58:53.823Z,8.75
2022-10-26T05:02:08.912Z,8.75
2022-10-26T05:05:23.861Z,8.76
2022-10-26T05:08:38.844Z,8.76
2022-10-26T05:11:53.868Z,8.77
2022-10-26T05:15:08.853Z,8.79
2022-10-26T05:18:10.685Z,8.76
2022-10-26T05:21:25.840Z,8.76
2022-10-26T05:24:27.755Z,8.77
2022-10-26T05:27:42.816Z,8.76
2022-10-26T05:30:57.841Z,8.74
2022-10-26T05:34:05.824Z,8.76
2022-10-26T05:37:27.852Z,8.70
2022-10-26T05:40:36.848Z,8.75
2022-10-26T05:43:53.850Z,8.75
2022-10-26T05:46:55.664Z,8.73
2022-10-26T05:50:10.868Z,8.73
2022-10-26T05:53:12.716Z,8.73
2022-10-26T05:56:40.847Z,8.76
2022-10-26T05:59:49.860Z,8.81
2022-10-26T06:03:22.881Z,8.93
2022-10-26T06:06:45.835Z,8.96
2022-10-26T06:10:01.861Z,9.04
2022-10-26T06:13:10.865Z,9.01
2022-10-26T06:16:25.848Z,9.03
2022-10-26T06:19:46.835Z,9.07
2022-10-26T06:23:00.829Z,9.09
2022-10-26T06:26:31.092Z,9.13
2022-10-26T06:30:12.964Z,9.14
2022-10-26T06:33:29.523Z,9.21
2022-10-26T06:36:46.883Z,9.26
2022-10-26T06:39:57.303Z,9.36
2022-10-26T06:43:19.837Z,9.39
2022-10-26T06:46:49.839Z,9.46
2022-10-26T06:50:12.667Z,9.41
2022-10-26T06:57:00.847Z,9.39
2022-10-26T07:00:23.937Z,9.35
2022-10-26T07:03:38.864Z,9.43
2022-10-26T07:06:40.802Z,9.52
2022-10-26T07:09:56.848Z,9.60
2022-10-26T07:13:06.528Z,9.65
2022-10-26T07:16:17.484Z,9.75
2022-10-26T07:19:33.794Z,9.65
2022-10-26T07:22:50.175Z,9.66
2022-10-26T07:25:52.860Z,9.80
2022-10-26T07:29:08.195Z,9.97
2022-10-26T07:32:16.846Z,10.00
2022-10-26T07:35:31.839Z,10.09
2022-10-26T07:38:40.440Z,10.22
2022-10-26T07:41:48.840Z,10.34
2022-10-26T07:44:57.516Z,10.39
2022-10-26T07:48:05.863Z,10.60
2022-10-26T07:51:15.094Z,10.77
2022-10-26T07:54:23.882Z,10.94
2022-10-26T07:57:32.370Z,11.04
2022-10-26T08:00:40.912Z,11.19
2022-10-26T08:03:52.453Z,11.40
2022-10-26T08:07:06.901Z,11.61
2022-10-26T08:10:09.161Z,11.95
2022-10-26T08:13:23.861Z,12.18
2022-10-26T08:16:25.677Z,12.39
2022-10-26T08:19:45.450Z,12.43
2022-10-26T08:23:02.842Z,12.52
2022-10-26T08:26:11.517Z,12.57
2022-10-26T08:29:25.841Z,12.64
2022-10-26T08:32:27.739Z,12.91
2022-10-26T08:35:42.870Z,12.93
2022-10-26T08:38:51.453Z,13.10
2022-10-26T08:42:17.843Z,13.03
2022-10-26T08:45:41.863Z,12.82
2022-10-26T08:48:54.829Z,12.73
2022-10-26T08:52:12.840Z,12.62
2022-10-26T08:55:33.861Z,12.45
2022-10-26T08:58:48.702Z,12.63
2022-10-26T09:02:03.874Z,12.83
2022-10-26T09:05:15.486Z,13.18
2022-10-26T09:08:55.851Z,13.14
2022-10-26T09:12:17.281Z,12.75
2022-10-26T09:15:29.450Z,12.91
2022-10-26T09:19:05.859Z,13.10
2022-10-26T09:22:19.113Z,13.22
2022-10-26T09:25:41.867Z,13.29
2022-10-26T09:28:52.852Z,13.46
2022-10-26T09:32:03.120Z,13.89
2022-10-26T09:35:26.893Z,13.82
2022-10-26T09:38:55.331Z,13.72
2022-10-26T09:42:28.584Z,13.83
2022-10-26T09:45:50.862Z,14.20
2022-10-26T09:48:58.303Z,14.38
2022-10-26T09:52:12.852Z,14.34
2022-10-26T09:55:21.412Z,14.25
2022-10-26T09:58:36.865Z,14.12
2022-10-26T10:01:45.442Z,13.69
2022-10-26T10:04:53.891Z,13.95
2022-10-26T10:08:28.857Z,14.02
2022-10-26T10:11:39.955Z,13.71
2022-10-26T10:15:04.849Z,13.69
2022-10-26T10:18:27.863Z,13.78
2022-10-26T10:21:56.837Z,13.63
2022-10-26T10:25:00.631Z,13.55
2022-10-26T10:28:30.843Z,13.82
2022-10-26T10:31:45.844Z,14.02
2022-10-26T10:34:55.849Z,14.19
2022-10-26T10:38:23.871Z,14.28
2022-10-26T10:41:41.843Z,14.44
2022-10-26T10:44:54.341Z,14.59
2022-10-26T10:48:20.837Z,14.57
2022-10-26T10:51:31.858Z,14.70
2022-10-26T10:54:46.838Z,14.74
2022-10-26T10:58:22.185Z,14.91
2022-10-26T11:01:37.920Z,14.93
2022-10-26T11:05:27.697Z,14.90
2022-10-26T11:08:55.985Z,15.18
2022-10-26T11:12:21.962Z,15.32
2022-10-26T11:15:33.078Z,15.39
2022-10-26T11:19:12.861Z,15.51
2022-10-26T11:22:27.872Z,15.56
2022-10-26T11:26:17.872Z,15.61
2022-10-26T11:29:27.143Z,15.56
2022-10-26T11:32:53.831Z,15.58
2022-10-26T11:36:08.480Z,15.73
2022-10-26T11:39:42.846Z,15.73
2022-10-26T11:43:00.178Z,15.75
2022-10-26T11:46:22.881Z,15.76
2022-10-26T11:50:04.900Z,15.75
2022-10-26T11:53:12.272Z,15.82
2022-10-26T11:56:37.863Z,15.87
2022-10-26T11:59:53.850Z,15.99
2022-10-26T12:03:09.460Z,16.00
2022-10-26T12:06:19.849Z,15.90
2022-10-26T12:09:36.131Z,15.92
2022-10-26T12:12:59.844Z,15.92
2022-10-26T12:16:30.867Z,15.96
2022-10-26T12:19:44.697Z,15.99
2022-10-26T12:22:59.869Z,16.06
2022-10-26T12:26:29.846Z,16.08
2022-10-26T12:29:54.854Z,16.08
2022-10-26T12:33:36.843Z,16.16
2022-10-26T12:37:01.948Z,16.32
2022-10-26T12:40:30.568Z,16.52
2022-10-26T12:43:46.850Z,16.53
2022-10-26T12:46:55.503Z,16.59
2022-10-26T12:50:12.875Z,16.64
2022-10-26T12:53:25.858Z,16.64
2022-10-26T12:57:03.876Z,16.55
2022-10-26T13:00:12.902Z,16.55
2022-10-26T13:03:46.855Z,16.64
2022-10-26T13:07:20.585Z,16.78
2022-10-26T13:10:32.855Z,16.76
2022-10-26T13:13:45.800Z,16.77
2022-10-26T13:17:03.925Z,16.78
2022-10-26T13:20:19.586Z,16.79
2022-10-26T13:23:38.446Z,16.78
2022-10-26T13:27:12.872Z,16.79
2022-10-26T13:30:47.859Z,16.77
2022-10-26T13:34:10.206Z,16.76
2022-10-26T13:37:35.874Z,16.72
2022-10-26T13:40:46.185Z,16.70
2022-10-26T13:43:55.868Z,16.63
2022-10-26T13:47:10.798Z,16.66
2022-10-26T13:50:36.869Z,16.58
2022-10-26T13:53:57.889Z,16.56
2022-10-26T13:57:44.867Z,16.56
2022-10-26T14:01:03.858Z,16.55
2022-10-26T14:04:33.861Z,16.55
2022-10-26T14:07:57.259Z,16.53
2022-10-26T14:11:12.852Z,16.48
2022-10-26T14:14:31.865Z,16.46
2022-10-26T14:17:46.876Z,16.43
2022-10-26T14:21:04.865Z,16.39
2022-10-26T14:24:45.826Z,16.35
2022-10-26T14:28:01.874Z,16.29
2022-10-26T14:31:20.474Z,16.26
2022-10-26T14:34:34.875Z,16.24
2022-10-26T14:38:00.881Z,16.21
2022-10-26T14:41:15.869Z,16.20
2022-10-26T14:44:25.755Z,16.17
2022-10-26T14:47:42.858Z,16.14
2022-10-26T14:51:23.868Z,16.12
2022-10-26T14:54:28.816Z,16.10
2022-10-26T14:57:49.891Z,16.07
2022-10-26T15:01:23.497Z,16.04
2022-10-26T15:04:39.878Z,16.00
2022-10-26T15:07:54.891Z,15.96
2022-10-26T15:11:08.091Z,15.91
2022-10-26T15:14:23.887Z,15.89
2022-10-26T15:17:40.876Z,15.86
2022-10-26T15:20:50.813Z,15.82
2022-10-26T15:24:06.896Z,15.77
2022-10-26T15:27:16.516Z,15.73
2022-10-26T15:30:33.929Z,15.72
2022-10-26T15:34:09.870Z,15.69
2022-10-26T15:37:25.014Z,15.69
2022-10-26T15:40:39.874Z,15.67
2022-10-26T15:43:49.786Z,15.65
2022-10-26T15:47:08.917Z,15.61
2022-10-26T15:50:26.879Z,15.58
2022-10-26T15:53:36.036Z,15.58
2022-10-26T15:56:51.871Z,15.56
2022-10-26T16:00:00.508Z,15.56
2022-10-26T16:03:09.898Z,15.57
2022-10-26T16:06:29.707Z,15.54
2022-10-26T16:09:39.147Z,15.46
2022-10-26T16:12:54.963Z,15.45
2022-10-26T16:16:04.067Z,15.42
2022-10-26T16:19:30.320Z,15.38
2022-10-26T16:22:40.447Z,15.33
2022-10-26T16:25:54.891Z,15.28
2022-10-26T16:29:03.895Z,15.24
2022-10-26T16:32:20.195Z,15.20
2022-10-26T16:35:36.237Z,15.17
2022-10-26T16:38:45.428Z,15.16
2022-10-26T16:42:01.252Z,15.15
2022-10-26T16:45:20.194Z,15.15
2022-10-26T16:48:24.159Z,15.15
2022-10-26T16:51:40.183Z,15.14
2022-10-26T16:54:42.780Z,15.13
2022-10-26T16:58:01.287Z,15.14
2022-10-26T17:01:13.485Z,15.14
2022-10-26T17:04:28.883Z,15.11
2022-10-26T17:07:45.118Z,15.08
2022-10-26T17:11:03.454Z,15.00
2022-10-26T17:14:18.902Z,14.97
2022-10-26T17:17:29.040Z,14.95
2022-10-26T17:20:56.006Z,14.96
2022-10-26T17:23:59.090Z,14.92
2022-10-26T17:27:15.933Z,14.93
2022-10-26T17:30:26.178Z,14.94
2022-10-26T17:33:40.399Z,14.91
2022-10-26T17:36:50.434Z,14.89
2022-10-26T17:40:13.323Z,14.87
2022-10-26T17:43:29.900Z,14.89
2022-10-26T17:46:39.218Z,14.87
2022-10-26T17:49:48.738Z,14.87
2022-10-26T17:53:05.266Z,14.87
2022-10-26T17:56:11.760Z,14.82
2022-10-26T17:59:34.333Z,14.80
2022-10-26T18:02:50.348Z,14.79
2022-10-26T18:06:07.899Z,14.80
2022-10-26T18:09:24.302Z,14.79
2022-10-26T18:12:27.608Z,14.72
2022-10-26T18:15:45.329Z,14.64
2022-10-26T18:18:56.589Z,14.60
2022-10-26T18:22:13.736Z,14.57
2022-10-26T18:25:25.798Z,14.56
2022-10-26T18:28:35.336Z,14.52
2022-10-26T18:31:45.656Z,14.50
2022-10-26T18:35:03.296Z,14.45
2022-10-26T18:38:19.315Z,14.42
2022-10-26T18:41:28.450Z,14.37
2022-10-26T18:44:44.415Z,14.32
2022-10-26T18:47:48.901Z,14.32
2022-10-26T18:51:11.892Z,14.25
2022-10-26T18:54:29.632Z,14.18
2022-10-26T18:57:41.950Z,14.12
2022-10-26T19:00:52.351Z,14.04
2022-10-26T19:04:14.327Z,13.99
2022-10-26T19:07:17.644Z,14.00
2022-10-26T19:13:48.914Z,13.95
2022-10-26T19:16:58.554Z,13.88
2022-10-26T19:20:10.244Z,13.81
2022-10-26T19:23:19.970Z,13.72
2022-10-26T19:26:53.414Z,13.69
2022-10-26T19:30:08.911Z,13.63
2022-10-26T19:33:27.366Z,13.59
2022-10-26T19:36:50.937Z,13.52
2022-10-26T19:40:01.004Z,13.48
2022-10-26T19:43:11.321Z,13.50
2022-10-26T19:46:34.258Z,13.49
2022-10-26T19:49:45.368Z,13.47
2022-10-26T19:53:02.333Z,13.42
2022-10-26T19:56:19.311Z,13.40
2022-10-26T19:59:29.333Z,13.34
2022-10-26T20:02:38.679Z,13.28
2022-10-26T20:05:55.321Z,13.24
2022-10-26T20:09:00.235Z,13.18
2022-10-26T20:12:16.885Z,13.19
2022-10-26T20:15:26.344Z,13.18
2022-10-26T20:18:45.790Z,13.15
2022-10-26T20:22:05.316Z,13.12
2022-10-26T20:25:27.309Z,13.06
2022-10-26T20:28:43.315Z,13.02
2022-10-26T20:32:00.335Z,12.96
2022-10-26T20:35:09.290Z,12.90
2022-10-26T20:38:26.263Z,12.81
2022-10-26T20:41:48.348Z,12.76
2022-10-26T20:45:37.213Z,12.75
2022-10-26T20:48:47.385Z,12.71
2022-10-26T20:52:20.622Z,12.65
2022-10-26T20:55:39.115Z,12.59
2022-10-26T20:58:51.900Z,12.56
2022-10-26T21:02:06.958Z,12.53
2022-10-26T21:05:08.927Z,12.50
2022-10-26T21:08:23.889Z,12.48
2022-10-26T21:11:32.893Z,12.49
2022-10-26T21:14:41.470Z,12.47
2022-10-26T21:17:50.178Z,12.48
2022-10-26T21:21:05.896Z,12.45
2022-10-26T21:24:14.466Z,12.47
2022-10-26T21:27:22.867Z,12.46
2022-10-26T21:30:31.645Z,12.44
2022-10-26T21:33:46.890Z,12.47
2022-10-26T21:36:48.637Z,12.50
2022-10-26T21:40:03.891Z,12.54
2022-10-26T21:43:18.894Z,12.56
2022-10-26T21:46:28.269Z,12.57
2022-10-26T21:49:42.910Z,12.61
2022-10-26T21:52:59.901Z,12.62
2022-10-26T21:56:14.177Z,12.64
2022-10-26T21:59:22.888Z,12.62
2022-10-26T22:02:31.401Z,12.66
2022-10-26T22:05:45.987Z,12.70
2022-10-26T22:08:54.909Z,12.76
2022-10-26T22:12:09.922Z,12.77
2022-10-26T22:15:24.914Z,12.77
2022-10-26T22:18:37.816Z,12.83
2022-10-26T22:21:47.906Z,12.87
2022-10-26T22:24:56.499Z,12.95
2022-10-26T22:28:04.919Z,13.00
2022-10-26T22:31:22.916Z,13.07
2022-10-26T22:34:24.750Z,13.09
2022-10-26T22:37:39.912Z,13.09
2022-10-26T22:40:55.567Z,13.11
2022-10-26T22:44:09.877Z,13.07
2022-10-26T22:47:17.915Z,13.10
2022-10-26T22:50:26.438Z,13.11
2022-10-26T22:53:40.910Z,13.12
2022-10-26T22:56:48.909Z,13.12
2022-10-26T22:59:57.609Z,13.14
2022-10-26T23:03:05.908Z,13.13
2022-10-26T23:06:23.915Z,13.15
2022-10-26T23:09:26.019Z,13.13
2022-10-26T23:12:40.901Z,13.08
2022-10-26T23:15:48.887Z,13.01
2022-10-26T23:19:05.930Z,12.94
2022-10-26T23:22:13.900Z,12.94
2022-10-26T23:25:28.904Z,12.93
2022-10-26T23:28:31.377Z,12.93
2022-10-26T23:31:45.906Z,12.88
2022-10-26T23:34:54.536Z,12.93
2022-10-26T23:41:22.903Z,12.94
2022-10-26T23:44:37.904Z,12.98
2022-10-26T23:47:46.891Z,12.99
2022-10-26T23:50:55.480Z,12.97
2022-10-26T23:54:09.903Z,12.95
2022-10-26T23:57:11.704Z,12.95
